Terminal Aerodrome Forecast
Issued by NWS

Home | Current Version | Previous Version | Text Only | Print | Product List | Glossary On
Versions: 1 2 3 4 5 6 7 8 9 10 11 12 13 14 15
040
FTAK31 PAJN 141140
TAFASI
TAF
PASI 141140Z 1412/1512 11020G30KT P6SM -RA OVC040 WS020/15045KT
     FM141600 13015G25KT 4SM -RA BR OVC025 WS020/17040KT
     FM142200 21015G25KT 4SM -SHRA SCT025 OVC040
     FM150600 20012KT P6SM -SHRA BKN025 OVC050
     FM151000 19010KT P6SM -SHRA SCT025 OVC050=

USA.gov is the U.S. government's official web portal to all federal, state and local government web resources and services.